Time;durP1;ratioP1;P1;durP2;ratioP2;P2;SDS_P1;SDS_P2;PMS_P1;PMS_P2;Temp;Humidity;BMP_temperature;BMP_pressure;BME280_temperature;BME280_humidity;BME280_pressure;Samples;Min_cycle;Max_cycle;Signal;HPM_P1;HPM_P2
2022/12/16 00:01:27;;;;;;;106.13;44.87;;;-4.20;1.00;;;;;;10402163;28;20191;-80
2022/12/16 00:06:48;;;;;;;100.70;42.83;;;-4.20;1.00;;;;;;10388716;28;20278;-79
2022/12/16 00:12:10;;;;;;;114.17;45.07;;;-4.30;1.00;;;;;;10389485;28;20193;-80
2022/12/16 00:17:31;;;;;;;103.93;44.50;;;-4.30;1.00;;;;;;10388958;28;20206;-76
2022/12/16 00:22:52;;;;;;;106.63;43.70;;;-4.20;1.00;;;;;;10386432;28;20226;-77
2022/12/16 00:28:15;;;;;;;109.47;42.27;;;-4.20;1.00;;;;;;10403058;28;20221;-79
2022/12/16 00:33:37;;;;;;;100.50;40.03;;;-4.00;1.00;;;;;;10402226;28;20193;-78
2022/12/16 00:38:58;;;;;;;94.17;40.57;;;-4.10;1.00;;;;;;10401796;28;20195;-79
2022/12/16 00:44:19;;;;;;;89.07;38.47;;;-4.10;1.00;;;;;;10402032;28;20189;-77
2022/12/16 00:49:41;;;;;;;113.23;48.17;;;-4.10;1.00;;;;;;10401824;28;20269;-82
2022/12/16 00:55:03;;;;;;;106.60;42.30;;;-4.10;1.00;;;;;;10401124;28;20275;-79
2022/12/16 01:00:25;;;;;;;91.90;41.33;;;-4.10;1.00;;;;;;10387448;28;20202;-80
2022/12/16 01:05:46;;;;;;;94.80;42.43;;;-4.10;1.00;;;;;;10386805;28;20417;-77
2022/12/16 01:11:09;;;;;;;104.03;42.10;;;-4.10;1.00;;;;;;10385450;28;20225;-80
2022/12/16 01:16:30;;;;;;;98.00;41.10;;;-4.10;1.00;;;;;;10387144;28;20217;-79
2022/12/16 01:21:51;;;;;;;100.00;42.80;;;-4.20;1.00;;;;;;10386778;28;20203;-80
2022/12/16 01:27:13;;;;;;;95.73;38.50;;;-4.10;1.00;;;;;;10401192;28;20204;-78
2022/12/16 01:32:34;;;;;;;97.63;40.73;;;-4.20;1.00;;;;;;10399912;28;20224;-79
2022/12/16 01:37:55;;;;;;;103.90;41.57;;;-4.10;1.00;;;;;;10399587;28;20356;-76
2022/12/16 01:43:19;;;;;;;95.83;41.33;;;-4.10;1.00;;;;;;10399700;28;20208;-80
2022/12/16 01:48:51;;;;;;;90.90;38.93;;;-4.10;1.00;;;;;;10399397;28;20220;-82
2022/12/16 01:54:29;;;;;;;86.10;40.23;;;-4.10;1.00;;;;;;10398831;28;20196;-80
2022/12/16 01:59:53;;;;;;;92.20;40.47;;;-4.10;1.00;;;;;;10400094;28;20199;-80
2022/12/16 02:05:21;;;;;;;85.53;40.37;;;-4.00;1.00;;;;;;10398416;28;20196;-80
2022/12/16 02:10:43;;;;;;;96.83;38.73;;;-4.00;1.00;;;;;;10398978;28;20216;-77
2022/12/16 02:16:29;;;;;;;102.57;40.63;;;-4.00;1.00;;;;;;10398137;28;20193;-77
2022/12/16 02:22:25;;;;;;;99.27;41.70;;;-3.90;1.00;;;;;;10383576;28;20240;-79
2022/12/16 02:28:08;;;;;;;101.30;39.73;;;-3.90;1.00;;;;;;10397825;28;20240;-80
2022/12/16 02:33:35;;;;;;;111.07;46.60;;;-3.90;1.00;;;;;;10398035;28;20196;-80
2022/12/16 02:39:11;;;;;;;97.57;41.17;;;-3.90;1.00;;;;;;10397635;28;20269;-82
2022/12/16 02:45:00;;;;;;;95.47;40.20;;;-3.80;1.00;;;;;;10383255;28;20250;-78
2022/12/16 02:50:32;;;;;;;101.60;41.43;;;-3.80;1.00;;;;;;10396484;28;20232;-79
2022/12/16 02:56:10;;;;;;;93.33;38.27;;;-3.70;1.00;;;;;;10397030;28;20195;-82
2022/12/16 03:01:34;;;;;;;110.67;48.07;;;-3.80;1.00;;;;;;10397598;28;20211;-77
2022/12/16 03:06:56;;;;;;;122.73;47.97;;;-3.80;1.00;;;;;;10381369;28;20225;-80
2022/12/16 03:12:20;;;;;;;105.87;45.00;;;-3.70;1.00;;;;;;10396572;28;20434;-79
2022/12/16 03:17:45;;;;;;;104.63;41.93;;;-3.70;1.00;;;;;;10397046;28;20205;-77
2022/12/16 03:23:11;;;;;;;98.83;40.63;;;-3.60;1.00;;;;;;10366033;28;20209;-79
2022/12/16 03:29:00;;;;;;;95.17;41.37;;;-3.50;1.00;;;;;;10395628;28;20289;-80
2022/12/16 03:34:42;;;;;;;98.93;40.47;;;-3.70;1.00;;;;;;10394678;28;20224;-80
2022/12/16 03:40:06;;;;;;;102.77;42.17;;;-3.80;1.00;;;;;;10392475;28;20196;-80
2022/12/16 03:45:36;;;;;;;99.87;39.50;;;-3.90;1.00;;;;;;10395603;28;20234;-78
2022/12/16 03:50:57;;;;;;;108.53;41.13;;;-3.90;1.00;;;;;;10395892;28;20222;-80
2022/12/16 03:56:18;;;;;;;111.17;42.33;;;-4.00;1.00;;;;;;10395295;28;20231;-79
2022/12/16 04:01:40;;;;;;;102.33;41.03;;;-4.00;1.00;;;;;;10381041;28;20245;-80
2022/12/16 04:07:19;;;;;;;120.67;46.70;;;-4.00;1.00;;;;;;10394486;28;20410;-79
2022/12/16 04:30:26;;;;;;;120.10;43.73;;;-3.80;1.00;;;;;;10395118;28;20316;-76
